• Join FlightAware (Why Join?)
  • Login
  • US Flag 
10:27PM EDT


 

Airport Tracker/Info


-or-


 

Live Flight TrackerFlight Track Log ✈ VH-OWG ✈ 06-Aug-2013 ✈ YPJT / JAD - YMDN

Flight Track Log - Related Links

Times and Time Zones

All times are in EDT time to prevent confusion due to time zone crossing. See the VH-OWG flight status page for this flight to view local times or setup timezone preferences in your user account.

Time Position Orientation Groundspeed Altitude Reporting Facility
EDT Latitude Longitude Course Direction KTS MPH feet Rate Location/Type
09:25AM -32.1233 115.8580 53° Northeast 123 142 1,500  Level Aus ATC (RADAR)
09:26AM -32.1020 115.8912 53° Northeast 134 154 3,100 1,560 Climbing Aus ATC (RADAR)
09:27AM -32.0666 115.9206 35° Northeast 151 174 5,000 1,620 Climbing Aus ATC (RADAR)
09:28AM -32.0336 115.9634 48° Northeast 160 184 6,700 1,500 Climbing Aus ATC (RADAR)
09:29AM -32.0058 116.0154 58° Northeast 175 201 8,300 1,320 Climbing Aus ATC (RADAR)
09:30AM -31.9907 116.0923 77° East 189 217 9,900 1,260 Climbing Aus ATC (RADAR)
09:31AM -31.9775 116.1569 76° East 197 227 11,200 1,320 Climbing Aus ATC (RADAR)
09:33AM -31.9621 116.2327 77° East 196 226 12,800 1,380 Climbing Aus ATC (RADAR)
09:34AM -31.9490 116.2974 77° East 193 222 14,300 1,260 Climbing Aus ATC (RADAR)
09:35AM -31.9345 116.3695 77° East 204 235 15,500 1,020 Climbing Aus ATC (RADAR)
09:36AM -31.9192 116.4458 77° East 215 247 16,600 720 Climbing Aus ATC (RADAR)
09:37AM -31.9021 116.5284 76° East 241 277 17,100 180 Climbing Aus ATC (RADAR)
09:38AM -31.8827 116.6247 77° East 278 320 17,100  Level Aus ATC (RADAR)
09:39AM -31.8618 116.7270 77° East 292 336 17,100  Level Aus ATC (RADAR)
09:40AM -31.8401 116.8312 76° East 295 339 17,100  Level Aus ATC (RADAR)
09:41AM -31.8188 116.9360 77° East 298 343 17,100  Level Aus ATC (RADAR)
09:42AM -31.7968 117.0412 76° East 300 345 17,100  Level Aus ATC (RADAR)
09:43AM -31.7747 117.1460 76° East 296 341 17,100  Level Aus ATC (RADAR)
09:44AM -31.7528 117.2512 76° East 299 344 17,100  Level Aus ATC (RADAR)
09:46AM -31.7308 117.3563 76° East 299 344 17,100  Level Aus ATC (RADAR)
09:47AM -31.7101 117.4533 76° East 298 343 17,100  Level Aus ATC (RADAR)
09:48AM -31.6866 117.5638 76° East 284 327 17,100 -900 Level Aus ATC (RADAR)
09:49AM -31.6676 117.6567 76° East 295 339 15,200 -1,920 Descending Aus ATC (RADAR)
09:50AM -31.6450 117.7563 75° East 285 328 13,200 -1,920 Descending Aus ATC (RADAR)
09:51AM -31.6231 117.8598 76° East 277 319 11,000 -1,920 Descending Aus ATC (RADAR)
09:52AM -31.6041 117.9473 76° East 276 318 9,100 -1,800 Descending Aus ATC (RADAR)
09:53AM -31.5840 118.0385 76° East 263 303 7,300 -1,680 Descending Aus ATC (RADAR)
09:55AM -31.5663 118.1241 76° East  Level Estimated
10:02AM -31.5251 118.3221 76° East  Level Estimated
10:03AM -31.5251 118.3221 North  Level Estimated
10:04AM -31.5251 118.3221 North  Level Estimated
10:05AM -31.5251 118.3221 North  Level Estimated
10:06AM -31.5251 118.3221 North  Level Estimated
10:07AM -31.5251 118.3221 North  Level Estimated
10:08AM -31.5251 118.3221 North  Level Estimated
10:09AM -31.5251 118.3221 North  Level Estimated
10:10AM -31.5251 118.3221 North  Level Estimated
10:11AM -31.5251 118.3221 North  Level Estimated
10:12AM -31.5251 118.3221 North  Level Estimated
10:13AM -31.5251 118.3221 North  Level Estimated
10:14AM -31.5251 118.3221 North  Level Estimated
10:15AM -31.5251 118.3221 North  Level Estimated
10:16AM -31.5251 118.3221 North  Level Estimated
10:17AM -31.5251 118.3221 North  Level Estimated
10:18AM -31.5251 118.3221 North  Level Estimated